Time;durP1;ratioP1;P1;durP2;ratioP2;P2;SDS_P1;SDS_P2;PMS_P1;PMS_P2;Temp;Humidity;BMP_temperature;BMP_pressure;BME280_temperature;BME280_humidity;BME280_pressure;Samples;Min_cycle;Max_cycle;Signal;HPM_P1;HPM_P2
2023/02/13 00:05:41;;;;;;;0.20;0.10;;;6.20;99.90;;;;;;21144614;28;20522;-67
2023/02/13 00:15:54;;;;;;;0.20;0.10;;;7.00;99.90;;;;;;21125794;28;20399;-66
2023/02/13 00:25:59;;;;;;;0.20;0.10;;;7.90;99.90;;;;;;21143415;28;20402;-66
2023/02/13 00:36:06;;;;;;;0.20;0.10;;;8.20;99.90;;;;;;21139431;28;20398;-66
2023/02/13 00:46:10;;;;;;;0.20;0.10;;;8.20;99.90;;;;;;21157421;28;20436;-66
2023/02/13 00:56:16;;;;;;;0.20;0.10;;;7.90;99.90;;;;;;21156946;28;20773;-67
2023/02/13 01:06:19;;;;;;;0.20;0.10;;;7.90;99.90;;;;;;21121559;28;20395;-67
2023/02/13 01:16:25;;;;;;;0.20;0.10;;;8.00;99.90;;;;;;21136786;28;20542;-67
2023/02/13 01:26:29;;;;;;;0.20;0.10;;;7.70;99.90;;;;;;21119071;28;20394;-67
2023/02/13 01:36:34;;;;;;;0.20;0.10;;;7.40;99.90;;;;;;21154402;28;20953;-67
2023/02/13 01:46:43;;;;;;;0.20;0.10;;;7.10;99.90;;;;;;21117206;28;20482;-67
2023/02/13 01:56:51;;;;;;;0.20;0.10;;;6.70;99.90;;;;;;21152393;28;20960;-67
2023/02/13 02:06:58;;;;;;;0.20;0.10;;;6.70;99.90;;;;;;21133169;28;20451;-67
2023/02/13 02:17:03;;;;;;;0.20;0.10;;;5.60;99.90;;;;;;21132440;28;20824;-66
2023/02/13 02:27:52;;;;;;;0.20;0.10;;;5.80;99.90;;;;;;21149927;28;20447;-67
2023/02/13 02:38:14;;;;;;;0.20;0.10;;;5.70;99.90;;;;;;21148989;28;20422;-66
2023/02/13 03:30:37;;;;;;;0.20;0.10;;;5.20;99.90;;;;;;21127094;28;20845;-67
2023/02/13 03:51:08;;;;;;;0.20;0.10;;;5.10;99.90;;;;;;21126059;28;20406;-66
2023/02/13 04:01:16;;;;;;;0.20;0.10;;;5.20;99.90;;;;;;21144407;28;20821;-67
2023/02/13 04:11:28;;;;;;;0.20;0.10;;;5.30;99.90;;;;;;21142080;28;20434;-66
2023/02/13 04:21:34;;;;;;;0.20;0.10;;;5.20;99.90;;;;;;21159547;28;20788;-66
2023/02/13 04:31:39;;;;;;;0.20;0.10;;;5.10;99.90;;;;;;21140361;28;20491;-67
2023/02/13 04:41:44;;;;;;;0.20;0.10;;;5.00;99.90;;;;;;21173420;27;20445;-67
2023/02/13 04:51:48;;;;;;;0.20;0.10;;;4.80;99.90;;;;;;21157596;28;20506;-67
2023/02/13 05:01:53;;;;;;;0.20;0.10;;;5.00;99.90;;;;;;21156572;28;20703;-67
2023/02/13 05:11:57;;;;;;;0.20;0.10;;;5.20;99.90;;;;;;21137112;28;20399;-67
2023/02/13 05:32:23;;;;;;;0.20;0.10;;;5.10;99.90;;;;;;21153004;28;20899;-66
2023/02/13 05:42:28;;;;;;;0.20;0.10;;;4.80;99.90;;;;;;21133971;28;21011;-67
2023/02/13 05:52:32;;;;;;;0.20;0.10;;;4.80;99.90;;;;;;21149499;28;20406;-67
2023/02/13 06:02:37;;;;;;;0.20;0.10;;;4.70;99.90;;;;;;21148642;28;20460;-67
2023/02/13 06:12:43;;;;;;;0.20;0.10;;;4.60;99.90;;;;;;21166670;27;20526;-67
2023/02/13 06:22:50;;;;;;;0.20;0.10;;;4.80;99.90;;;;;;21112242;28;20399;-67
2023/02/13 06:32:54;;;;;;;0.20;0.10;;;4.50;99.90;;;;;;21147749;28;20407;-67
2023/02/13 06:42:59;;;;;;;0.20;0.10;;;5.00;99.90;;;;;;21146870;28;20782;-66
2023/02/13 06:53:03;;;;;;;0.20;0.10;;;5.10;99.90;;;;;;21144348;28;20432;-68
2023/02/13 07:03:08;;;;;;;0.20;0.10;;;4.70;99.90;;;;;;21122069;28;20425;-66
2023/02/13 07:13:13;;;;;;;0.20;0.10;;;5.00;99.90;;;;;;21142436;28;20406;-66
2023/02/13 07:23:18;;;;;;;0.20;0.10;;;4.90;99.90;;;;;;21144759;28;20455;-67
2023/02/13 07:33:23;;;;;;;0.20;0.10;;;5.40;99.90;;;;;;21121925;28;20409;-67
2023/02/13 07:43:29;;;;;;;0.20;0.10;;;5.50;99.90;;;;;;21137360;28;20458;-68
2023/02/13 07:53:33;;;;;;;0.20;0.10;;;6.00;99.90;;;;;;21160211;28;20781;-67
2023/02/13 08:03:39;;;;;;;0.20;0.10;;;6.60;99.90;;;;;;21140166;28;20742;-68
2023/02/13 08:13:43;;;;;;;0.20;0.10;;;6.90;99.90;;;;;;21158980;28;20478;-66
2023/02/13 08:23:50;;;;;;;0.20;0.10;;;7.50;99.90;;;;;;21139221;28;21188;-66
2023/02/13 08:33:55;;;;;;;0.20;0.10;;;8.00;99.90;;;;;;21155627;28;20414;-67
2023/02/13 08:44:01;;;;;;;0.20;0.10;;;8.30;99.90;;;;;;21156246;28;20387;-66
2023/02/13 08:54:04;;;;;;;0.20;0.10;;;9.10;99.90;;;;;;21135857;28;20414;-67
2023/02/13 09:04:09;;;;;;;0.20;0.10;;;9.40;99.90;;;;;;21117218;28;20422;-66
2023/02/13 09:14:13;;;;;;;0.20;0.10;;;9.90;99.90;;;;;;21132431;28;20850;-67
2023/02/13 09:24:19;;;;;;;0.20;0.10;;;10.00;99.90;;;;;;21151647;28;20393;-65
2023/02/13 09:34:23;;;;;;;0.20;0.10;;;10.40;99.90;;;;;;21133407;28;20742;-67
2023/02/13 09:44:36;;;;;;;0.20;0.10;;;11.00;99.90;;;;;;21080505;28;20409;-67
2023/02/13 09:54:40;;;;;;;0.20;0.10;;;11.50;99.90;;;;;;21129806;28;20406;-67
2023/02/13 10:04:52;;;;;;;0.20;0.10;;;11.70;99.90;;;;;;21128764;28;20429;-66
2023/02/13 10:15:10;;;;;;;0.20;0.00;;;11.70;99.90;;;;;;21147611;28;20441;-67
2023/02/13 10:25:21;;;;;;;0.20;0.00;;;12.10;99.90;;;;;;21128344;28;20392;-66
2023/02/13 10:35:30;;;;;;;0.20;0.10;;;12.40;99.90;;;;;;21113369;28;20418;-66
2023/02/13 10:45:49;;;;;;;0.20;0.10;;;12.70;99.90;;;;;;21127147;28;20402;-67
2023/02/13 10:56:09;;;;;;;0.20;0.10;;;13.10;99.90;;;;;;21144742;28;20402;-66
2023/02/13 11:06:19;;;;;;;0.20;0.00;;;13.60;99.90;;;;;;21127770;28;20410;-65
2023/02/13 11:16:22;;;;;;;0.20;0.07;;;14.30;99.90;;;;;;21126341;28;20901;-65
2023/02/13 11:26:32;;;;;;;0.20;0.10;;;15.30;99.90;;;;;;21143130;28;20908;-67
2023/02/13 11:36:37;;;;;;;0.20;0.10;;;15.20;99.90;;;;;;21087871;28;20773;-67
2023/02/13 11:46:48;;;;;;;0.20;0.10;;;15.70;99.90;;;;;;21141637;28;20433;-66
2023/02/13 11:56:54;;;;;;;0.20;0.10;;;15.70;99.90;;;;;;21108003;28;20402;-67
2023/02/13 12:07:26;;;;;;;0.20;0.00;;;15.80;99.90;;;;;;21124471;28;20386;-69
2023/02/13 12:17:31;;;;;;;0.20;0.10;;;16.10;99.90;;;;;;21123530;28;21077;-66
2023/02/13 12:27:46;;;;;;;0.20;0.07;;;16.10;99.90;;;;;;21128004;28;20908;-67
2023/02/13 12:37:58;;;;;;;0.20;0.10;;;16.20;99.90;;;;;;21081522;28;20848;-67
2023/02/13 12:48:16;;;;;;;0.20;0.10;;;16.50;99.90;;;;;;21143932;28;20383;-66
2023/02/13 12:58:41;;;;;;;0.20;0.10;;;16.90;99.90;;;;;;21136533;28;20410;-67
2023/02/13 13:09:05;;;;;;;0.20;0.10;;;16.80;99.90;;;;;;21136131;28;20391;-67
2023/02/13 13:19:18;;;;;;;0.20;0.10;;;17.40;99.90;;;;;;21152908;28;20430;-68
2023/02/13 13:29:26;;;;;;;0.20;0.10;;;17.80;99.90;;;;;;21133618;28;20386;-66
2023/02/13 13:39:40;;;;;;;0.20;0.08;;;17.70;99.90;;;;;;21060913;28;20401;-67
2023/02/13 13:49:51;;;;;;;0.20;0.10;;;18.60;99.90;;;;;;21102356;28;20386;-65
2023/02/13 14:00:24;;;;;;;0.20;0.10;;;18.50;99.90;;;;;;21150091;28;20451;-67
2023/02/13 14:11:08;;;;;;;0.20;0.10;;;18.60;99.90;;;;;;21130247;28;20422;-66
2023/02/13 14:21:23;;;;;;;0.20;0.10;;;19.80;99.90;;;;;;21113744;28;20796;-65
2023/02/13 14:31:31;;;;;;;0.20;0.10;;;19.50;99.90;;;;;;21130285;28;20407;-67
2023/02/13 14:41:46;;;;;;;0.20;0.00;;;20.00;99.90;;;;;;21097521;28;20477;-66
2023/02/13 14:51:52;;;;;;;0.20;0.10;;;19.40;99.90;;;;;;21146424;28;20407;-68
2023/02/13 15:02:01;;;;;;;0.20;0.10;;;19.40;99.90;;;;;;21127553;28;20757;-68
2023/02/13 15:12:26;;;;;;;0.20;0.00;;;20.20;99.90;;;;;;21109660;28;20415;-65
2023/02/13 15:22:35;;;;;;;0.20;0.10;;;19.40;99.90;;;;;;21144427;28;20383;-67
2023/02/13 15:32:40;;;;;;;0.20;0.10;;;19.00;99.90;;;;;;21096556;28;20508;-67
2023/02/13 15:42:45;;;;;;;0.80;0.80;;;18.80;99.90;;;;;;21056512;28;20484;-66
2023/02/13 15:52:51;;;;;;;0.20;0.10;;;17.30;99.90;;;;;;21073043;28;20412;-67
2023/02/13 16:02:58;;;;;;;0.20;0.10;;;17.00;99.90;;;;;;21066704;28;20755;-68
2023/02/13 16:13:05;;;;;;;0.20;0.03;;;16.60;99.90;;;;;;21090300;28;20411;-65
2023/02/13 16:23:19;;;;;;;0.20;0.10;;;17.20;99.90;;;;;;21054866;28;20397;-67
2023/02/13 16:33:27;;;;;;;0.20;0.10;;;15.70;99.90;;;;;;21080004;28;20414;-67
2023/02/13 16:43:42;;;;;;;0.20;0.10;;;15.30;99.90;;;;;;21137419;28;20486;-68
2023/02/13 16:53:46;;;;;;;0.20;0.10;;;14.40;99.90;;;;;;21155183;28;20406;-68
2023/02/13 17:03:52;;;;;;;0.20;0.10;;;13.30;99.90;;;;;;21154266;28;20938;-67
2023/02/13 17:13:55;;;;;;;0.20;0.10;;;12.70;99.90;;;;;;21134466;28;20468;-68
2023/02/13 17:24:02;;;;;;;0.20;0.10;;;12.50;99.90;;;;;;21133821;28;20900;-68
2023/02/13 17:34:06;;;;;;;0.20;0.10;;;12.30;99.90;;;;;;21139938;28;20551;-67
2023/02/13 17:44:12;;;;;;;0.20;0.10;;;12.20;99.90;;;;;;21130130;28;20490;-66
2023/02/13 17:54:16;;;;;;;0.20;0.00;;;12.00;99.90;;;;;;21150053;28;20406;-66
2023/02/13 18:04:22;;;;;;;0.20;0.00;;;12.00;99.90;;;;;;21129188;28;20390;-67
2023/02/13 18:14:29;;;;;;;0.20;0.10;;;11.80;99.90;;;;;;21146773;28;20440;-68
2023/02/13 18:24:36;;;;;;;0.20;0.10;;;11.70;99.90;;;;;;21144233;28;20399;-67
2023/02/13 18:34:40;;;;;;;0.20;0.10;;;11.60;99.90;;;;;;21146346;28;20414;-66
2023/02/13 18:44:45;;;;;;;0.20;0.10;;;10.30;99.90;;;;;;21128042;28;20544;-68
2023/02/13 18:54:49;;;;;;;0.20;0.10;;;9.60;99.90;;;;;;21146088;28;20555;-69
2023/02/13 19:04:55;;;;;;;0.20;0.10;;;9.30;99.90;;;;;;21127452;28;20386;-68
2023/02/13 19:14:59;;;;;;;0.20;0.10;;;9.00;99.90;;;;;;21145373;28;20487;-68
2023/02/13 19:25:04;;;;;;;0.20;0.10;;;8.80;99.90;;;;;;21144221;28;20402;-66
2023/02/13 19:35:08;;;;;;;0.20;0.10;;;8.50;99.90;;;;;;21115110;28;20459;-68
2023/02/13 19:45:13;;;;;;;0.20;0.10;;;8.50;99.90;;;;;;21183274;27;20399;-68
2023/02/13 19:55:18;;;;;;;0.20;0.10;;;8.50;99.90;;;;;;21149141;28;20791;-68
2023/02/13 20:05:24;;;;;;;0.20;0.10;;;8.10;99.90;;;;;;21149348;28;20401;-67
2023/02/13 20:15:28;;;;;;;0.20;0.08;;;8.10;99.90;;;;;;21131204;28;20981;-66
2023/02/13 20:25:36;;;;;;;0.20;0.10;;;8.10;99.90;;;;;;21166580;28;20886;-67
2023/02/13 20:35:39;;;;;;;0.20;0.10;;;8.10;99.90;;;;;;21165908;28;20406;-67
2023/02/13 20:45:44;;;;;;;0.20;0.10;;;7.90;99.90;;;;;;21161104;28;20422;-67
2023/02/13 20:55:48;;;;;;;0.20;0.10;;;7.90;99.90;;;;;;21152777;28;20463;-67
2023/02/13 21:05:54;;;;;;;1.40;1.30;;;7.60;99.90;;;;;;21116817;28;20430;-67
2023/02/13 21:16:04;;;;;;;0.20;0.05;;;7.60;99.90;;;;;;21100818;28;20415;-67
2023/02/13 21:26:11;;;;;;;0.20;0.10;;;7.40;99.90;;;;;;21142063;28;21081;-67
2023/02/13 21:36:15;;;;;;;0.20;0.08;;;7.30;99.90;;;;;;21130244;28;20519;-67
2023/02/13 21:46:22;;;;;;;0.20;0.00;;;7.30;99.90;;;;;;21133835;28;20501;-68
2023/02/13 21:56:28;;;;;;;0.20;0.10;;;7.00;99.90;;;;;;21147738;28;20816;-66
2023/02/13 22:06:35;;;;;;;0.20;0.00;;;7.00;99.90;;;;;;21131110;28;20400;-67
2023/02/13 22:16:41;;;;;;;0.20;0.10;;;6.80;99.90;;;;;;21143402;28;20431;-68
2023/02/13 22:26:46;;;;;;;0.20;0.00;;;6.90;99.90;;;;;;21149865;28;20535;-67
2023/02/13 22:36:50;;;;;;;0.20;0.00;;;6.70;99.90;;;;;;21149932;28;20424;-67
2023/02/13 22:46:55;;;;;;;0.20;0.10;;;6.40;99.90;;;;;;21130841;28;20478;-68
2023/02/13 22:56:59;;;;;;;0.20;0.00;;;6.60;99.90;;;;;;21113654;28;21088;-68
2023/02/13 23:07:04;;;;;;;0.20;0.10;;;6.50;99.90;;;;;;21147867;28;20436;-67
2023/02/13 23:27:30;;;;;;;0.20;0.00;;;6.80;99.90;;;;;;21128328;28;20490;-67
2023/02/13 23:37:34;;;;;;;0.20;0.10;;;6.70;99.90;;;;;;21146446;28;20473;-68
2023/02/13 23:47:39;;;;;;;0.20;0.10;;;6.90;99.90;;;;;;21127702;28;20399;-68
2023/02/13 23:57:44;;;;;;;0.20;0.10;;;7.00;99.90;;;;;;21127368;28;20417;-68
